createdAt,value
2023-06-19T00:02:19.748Z,9.00
2023-06-19T00:04:47.417Z,9.47
2023-06-19T00:07:14.957Z,10.47
2023-06-19T00:09:42.519Z,10.37
2023-06-19T00:12:12.505Z,9.47
2023-06-19T00:14:40.427Z,9.40
2023-06-19T00:17:08.111Z,10.03
2023-06-19T00:19:37.092Z,10.37
2023-06-19T00:22:05.198Z,10.10
2023-06-19T00:24:32.852Z,11.07
2023-06-19T00:27:03.726Z,9.13
2023-06-19T00:29:32.774Z,9.93
2023-06-19T00:32:01.034Z,9.53
2023-06-19T00:34:31.256Z,9.50
2023-06-19T00:36:59.746Z,10.67
2023-06-19T00:39:28.467Z,9.77
2023-06-19T00:41:56.517Z,9.47
2023-06-19T00:44:24.334Z,10.27
2023-06-19T00:47:00.486Z,11.40
2023-06-19T00:49:30.055Z,10.00
2023-06-19T00:51:57.688Z,10.13
2023-06-19T00:54:25.268Z,11.00
2023-06-19T00:56:53.437Z,10.57
2023-06-19T00:59:21.724Z,9.73
2023-06-19T01:01:49.366Z,10.40
2023-06-19T01:04:18.346Z,10.43
2023-06-19T01:06:50.776Z,11.27
2023-06-19T01:09:19.281Z,10.77
2023-06-19T01:11:51.197Z,11.77
2023-06-19T01:14:21.474Z,11.17
2023-06-19T01:16:49.286Z,11.23
2023-06-19T01:19:21.833Z,11.40
2023-06-19T01:21:51.250Z,11.90
2023-06-19T01:24:20.225Z,10.57
2023-06-19T01:26:48.414Z,10.67
2023-06-19T01:29:17.077Z,11.57
2023-06-19T01:31:48.229Z,11.53
2023-06-19T01:34:16.452Z,11.67
2023-06-19T01:36:44.338Z,12.07
2023-06-19T01:39:12.756Z,10.90
2023-06-19T01:41:42.374Z,10.20
2023-06-19T01:44:10.764Z,11.03
2023-06-19T01:46:38.606Z,10.80
2023-06-19T01:49:08.789Z,11.10
2023-06-19T01:51:36.884Z,11.53
2023-06-19T01:54:05.336Z,11.63
2023-06-19T01:56:33.029Z,11.63
2023-06-19T01:59:01.936Z,12.70
2023-06-19T02:01:29.466Z,10.70
2023-06-19T02:03:57.131Z,11.17
2023-06-19T02:06:24.903Z,11.87
2023-06-19T02:08:52.437Z,12.07
2023-06-19T02:11:20.008Z,11.37
2023-06-19T02:13:47.662Z,11.67
2023-06-19T02:16:16.644Z,11.43
2023-06-19T02:18:44.224Z,11.90
2023-06-19T02:21:11.799Z,11.33
2023-06-19T02:23:39.334Z,11.90
2023-06-19T02:26:06.910Z,11.40
2023-06-19T02:28:34.478Z,12.00
2023-06-19T02:31:02.068Z,11.73
2023-06-19T02:33:30.991Z,11.20
2023-06-19T02:36:00.226Z,11.80
2023-06-19T02:38:27.984Z,11.93
2023-06-19T02:40:55.564Z,11.40
2023-06-19T02:43:23.095Z,12.20
2023-06-19T02:45:50.675Z,11.73
2023-06-19T02:48:18.916Z,11.67
2023-06-19T02:50:47.816Z,11.10
2023-06-19T02:53:17.715Z,12.03
2023-06-19T02:55:45.273Z,11.80
2023-06-19T02:58:12.822Z,11.13
2023-06-19T03:00:40.726Z,11.40
2023-06-19T03:03:08.589Z,12.30
2023-06-19T03:05:36.211Z,12.67
2023-06-19T03:08:05.316Z,12.67
2023-06-19T03:10:33.093Z,12.90
2023-06-19T03:13:00.729Z,13.70
2023-06-19T03:15:28.311Z,11.80
2023-06-19T03:17:55.885Z,11.60
2023-06-19T03:20:23.598Z,11.40
2023-06-19T03:22:52.635Z,12.80
2023-06-19T03:25:21.904Z,12.00
2023-06-19T03:27:49.447Z,12.37
2023-06-19T03:30:19.534Z,12.37
2023-06-19T03:32:47.258Z,12.00
2023-06-19T03:35:15.849Z,11.63
2023-06-19T03:37:43.434Z,11.80
2023-06-19T03:40:14.581Z,12.67
2023-06-19T03:42:43.968Z,13.03
2023-06-19T03:45:12.078Z,12.97
2023-06-19T03:47:40.097Z,13.63
2023-06-19T03:50:30.683Z,12.43
2023-06-19T03:52:58.251Z,12.83
2023-06-19T03:55:26.411Z,12.10
2023-06-19T03:57:55.301Z,12.53
2023-06-19T04:00:23.669Z,12.77
2023-06-19T04:02:51.643Z,12.43
2023-06-19T04:05:20.671Z,12.63
2023-06-19T04:07:48.296Z,12.47
2023-06-19T04:10:16.174Z,12.70
2023-06-19T04:12:43.772Z,12.43
2023-06-19T04:15:13.178Z,13.07
2023-06-19T04:17:40.786Z,12.27
2023-06-19T04:20:12.463Z,12.37
2023-06-19T04:22:41.397Z,11.47
2023-06-19T04:25:11.453Z,13.03
2023-06-19T04:27:39.249Z,11.60
2023-06-19T04:30:08.041Z,12.83
2023-06-19T04:32:37.724Z,12.37
2023-06-19T04:35:05.976Z,12.60
2023-06-19T04:37:33.515Z,13.43
2023-06-19T04:40:01.050Z,12.20
2023-06-19T04:42:29.114Z,12.97
2023-06-19T04:44:57.317Z,14.17
2023-06-19T04:47:33.409Z,12.23
2023-06-19T04:50:06.516Z,12.70
2023-06-19T04:52:34.687Z,12.60
2023-06-19T04:55:02.208Z,12.10
2023-06-19T04:57:29.785Z,11.23
2023-06-19T04:59:57.330Z,10.27
2023-06-19T05:02:25.355Z,8.97
2023-06-19T05:04:53.011Z,9.23
2023-06-19T05:07:21.900Z,10.17
2023-06-19T05:09:49.417Z,10.37
2023-06-19T05:12:16.990Z,10.50
2023-06-19T05:14:44.540Z,10.53
2023-06-19T05:17:12.136Z,12.73
2023-06-19T05:19:39.744Z,11.17
2023-06-19T05:22:07.767Z,11.30
2023-06-19T05:24:36.766Z,11.70
2023-06-19T05:27:04.622Z,10.20
2023-06-19T05:29:32.764Z,10.63
2023-06-19T05:32:00.555Z,11.20
2023-06-19T05:34:28.149Z,11.70
2023-06-19T05:36:55.734Z,10.97
2023-06-19T05:39:23.297Z,11.50
2023-06-19T05:41:52.213Z,10.63
2023-06-19T05:44:20.173Z,10.53
2023-06-19T05:46:47.802Z,10.47
2023-06-19T05:49:15.384Z,10.93
2023-06-19T05:51:42.935Z,9.90
2023-06-19T05:54:10.875Z,10.83
2023-06-19T05:56:38.450Z,10.80
2023-06-19T05:59:07.342Z,10.47
2023-06-19T06:01:34.952Z,10.40
2023-06-19T06:04:03.065Z,10.33
2023-06-19T06:06:30.662Z,11.03
2023-06-19T06:08:58.197Z,14.17
2023-06-19T06:11:25.761Z,10.80
2023-06-19T06:13:53.342Z,10.27
2023-06-19T06:16:22.558Z,10.13
2023-06-19T06:18:50.147Z,9.97
2023-06-19T06:21:17.804Z,10.17
2023-06-19T06:23:45.983Z,11.03
2023-06-19T06:26:13.788Z,11.30
2023-06-19T06:28:41.355Z,10.30
2023-06-19T06:31:09.060Z,10.40
2023-06-19T06:33:37.938Z,10.03
2023-06-19T06:36:07.935Z,10.43
2023-06-19T06:38:36.402Z,9.93
2023-06-19T06:41:03.941Z,10.50
2023-06-19T06:43:31.492Z,11.03
2023-06-19T06:45:59.080Z,10.03
2023-06-19T06:48:26.646Z,9.57
2023-06-19T06:51:01.785Z,8.73
2023-06-19T06:53:30.055Z,9.50
2023-06-19T06:55:57.757Z,8.60
2023-06-19T06:58:25.297Z,9.10
2023-06-19T07:00:53.076Z,9.13
2023-06-19T07:03:20.818Z,8.60
2023-06-19T07:05:49.373Z,9.33
2023-06-19T07:08:18.414Z,8.47
2023-06-19T07:10:45.986Z,8.77
2023-06-19T07:13:13.557Z,10.03
2023-06-19T07:15:41.404Z,8.60
2023-06-19T07:18:09.401Z,9.13
2023-06-19T07:20:37.021Z,9.13
2023-06-19T07:23:04.960Z,9.10
2023-06-19T07:25:34.918Z,9.23
2023-06-19T07:28:05.230Z,8.00
2023-06-19T07:30:33.020Z,7.90
2023-06-19T07:33:00.678Z,9.30
2023-06-19T07:35:28.311Z,7.87
2023-06-19T07:37:55.869Z,8.43
2023-06-19T07:40:23.727Z,8.60
2023-06-19T07:42:52.882Z,9.10
2023-06-19T07:45:20.460Z,8.30
2023-06-19T07:47:56.151Z,8.67
2023-06-19T07:50:27.067Z,8.07
2023-06-19T07:52:55.225Z,7.83
2023-06-19T07:55:22.757Z,8.20
2023-06-19T07:57:50.337Z,8.37
2023-06-19T08:00:19.820Z,8.43
2023-06-19T08:02:47.441Z,7.93
2023-06-19T08:05:16.307Z,8.30
2023-06-19T08:07:43.895Z,8.07
2023-06-19T08:10:14.497Z,8.83
2023-06-19T08:12:43.146Z,8.33
2023-06-19T08:15:11.400Z,7.90
2023-06-19T08:17:40.423Z,7.33
2023-06-19T08:20:09.350Z,8.17
2023-06-19T08:22:36.944Z,8.03
2023-06-19T08:25:05.527Z,8.27
2023-06-19T08:27:33.089Z,10.97
2023-06-19T08:30:00.659Z,7.77
2023-06-19T08:32:28.500Z,7.90
2023-06-19T08:34:57.445Z,7.53
2023-06-19T08:37:25.051Z,7.60
2023-06-19T08:39:52.614Z,7.37
2023-06-19T08:42:20.282Z,9.53
2023-06-19T08:44:47.863Z,8.27
2023-06-19T08:47:15.409Z,7.03
2023-06-19T08:49:42.990Z,7.87
2023-06-19T08:52:11.989Z,8.50
2023-06-19T08:54:45.105Z,7.70
2023-06-19T08:57:13.668Z,7.83
2023-06-19T08:59:41.835Z,7.93
2023-06-19T09:02:09.572Z,7.90
2023-06-19T09:04:37.180Z,8.97
2023-06-19T09:07:06.372Z,8.00
2023-06-19T09:09:35.642Z,7.30
2023-06-19T09:12:05.015Z,7.30
2023-06-19T09:14:36.524Z,6.93
2023-06-19T09:17:04.768Z,7.10
2023-06-19T09:19:34.664Z,6.30
2023-06-19T09:22:03.361Z,7.50
2023-06-19T09:24:37.739Z,6.80
2023-06-19T09:27:10.242Z,6.57
2023-06-19T09:29:39.448Z,6.80
2023-06-19T09:32:17.232Z,7.40
2023-06-19T09:34:44.836Z,6.33
2023-06-19T09:37:12.556Z,7.57
2023-06-19T09:39:42.659Z,6.93
2023-06-19T09:42:11.298Z,6.37
2023-06-19T09:44:46.348Z,6.00
2023-06-19T09:47:19.543Z,6.13
2023-06-19T09:49:51.656Z,7.40
2023-06-19T09:52:20.448Z,6.47
2023-06-19T09:54:50.486Z,6.07
2023-06-19T09:57:19.327Z,6.53
2023-06-19T09:59:49.107Z,6.57
2023-06-19T10:02:18.419Z,7.23
2023-06-19T10:04:47.536Z,6.53
2023-06-19T10:07:19.691Z,6.40
2023-06-19T10:10:01.601Z,6.50
2023-06-19T10:12:42.574Z,6.83
2023-06-19T10:15:11.675Z,6.90
2023-06-19T10:17:39.887Z,6.57
2023-06-19T10:20:15.058Z,7.67
2023-06-19T10:22:53.174Z,6.90
2023-06-19T10:25:26.286Z,6.57
2023-06-19T10:27:55.735Z,7.60
2023-06-19T10:30:23.466Z,7.23
2023-06-19T10:32:51.233Z,7.10
2023-06-19T10:35:22.217Z,7.30
2023-06-19T10:37:50.160Z,6.90
2023-06-19T10:40:18.110Z,6.93
2023-06-19T10:42:47.697Z,6.83
2023-06-19T10:45:17.902Z,6.27
2023-06-19T10:47:46.327Z,6.80
2023-06-19T10:50:14.792Z,10.13
2023-06-19T10:52:44.737Z,6.63
2023-06-19T10:55:13.503Z,7.10
2023-06-19T10:57:47.576Z,6.30
2023-06-19T11:00:25.532Z,6.20
2023-06-19T11:02:53.491Z,6.00
2023-06-19T11:05:22.952Z,6.40
2023-06-19T11:07:55.082Z,5.83
2023-06-19T11:10:24.068Z,5.40
2023-06-19T11:12:55.938Z,6.23
2023-06-19T11:15:30.540Z,7.70
2023-06-19T11:17:58.336Z,9.57
2023-06-19T11:20:26.899Z,5.97
2023-06-19T11:22:57.881Z,5.40
2023-06-19T11:25:25.736Z,5.50
2023-06-19T11:27:55.728Z,5.63
2023-06-19T11:30:32.733Z,5.10
2023-06-19T11:33:00.403Z,4.97
2023-06-19T11:35:36.890Z,5.73
2023-06-19T11:38:04.783Z,5.53
2023-06-19T11:40:41.464Z,4.80
2023-06-19T11:43:10.941Z,5.60
2023-06-19T11:45:48.405Z,5.40
2023-06-19T11:48:16.202Z,5.53
2023-06-19T11:50:43.742Z,5.50
2023-06-19T11:53:11.346Z,5.60
2023-06-19T11:55:39.722Z,5.60
2023-06-19T11:58:08.175Z,5.50
2023-06-19T12:00:38.114Z,5.43
2023-06-19T12:03:06.187Z,5.80
2023-06-19T12:05:33.893Z,5.17
2023-06-19T12:08:03.317Z,4.90
2023-06-19T12:10:31.018Z,6.03
2023-06-19T12:12:58.809Z,5.07
2023-06-19T12:15:26.771Z,5.27
2023-06-19T12:17:58.974Z,5.00
2023-06-19T12:20:27.225Z,6.03
2023-06-19T12:22:55.116Z,6.30
2023-06-19T12:25:22.691Z,6.67
2023-06-19T12:27:53.957Z,5.83
2023-06-19T12:30:23.072Z,4.63
2023-06-19T12:32:51.379Z,4.57
2023-06-19T12:35:20.412Z,4.20
2023-06-19T12:37:48.052Z,4.10
2023-06-19T12:40:18.016Z,3.73
2023-06-19T12:42:45.996Z,4.15
2023-06-19T12:45:13.805Z,4.00
2023-06-19T12:47:41.484Z,2.90
2023-06-19T12:50:11.450Z,3.33
2023-06-19T12:52:40.374Z,3.83
2023-06-19T12:55:08.692Z,3.58
2023-06-19T12:57:36.306Z,3.55
2023-06-19T13:00:06.379Z,3.78
2023-06-19T13:02:34.085Z,4.38
2023-06-19T13:05:02.025Z,3.30
2023-06-19T13:07:29.853Z,3.20
2023-06-19T13:09:58.740Z,2.72
2023-06-19T13:12:26.327Z,3.20
2023-06-19T13:14:53.961Z,2.67
2023-06-19T13:17:21.533Z,3.42
2023-06-19T13:19:49.128Z,3.30
2023-06-19T13:22:16.724Z,2.92
2023-06-19T13:24:44.312Z,3.20
2023-06-19T13:27:13.234Z,3.50
2023-06-19T13:29:41.661Z,3.67
2023-06-19T13:32:09.560Z,3.10
2023-06-19T13:34:37.226Z,3.47
2023-06-19T13:37:05.597Z,3.95
2023-06-19T13:39:33.189Z,3.38
2023-06-19T13:42:02.451Z,3.78
2023-06-19T13:44:31.362Z,3.08
2023-06-19T13:46:59.048Z,3.15
2023-06-19T13:49:27.079Z,3.63
2023-06-19T13:51:54.715Z,3.65
2023-06-19T13:54:22.268Z,3.40
2023-06-19T13:56:49.925Z,3.25
2023-06-19T13:59:17.603Z,2.75
2023-06-19T14:01:46.511Z,2.97
2023-06-19T14:04:14.169Z,3.90
2023-06-19T14:06:43.611Z,5.80
2023-06-19T14:09:11.213Z,3.15
2023-06-19T14:11:38.739Z,3.47
2023-06-19T14:14:06.434Z,3.35
2023-06-19T14:16:34.049Z,3.55
2023-06-19T14:19:02.987Z,3.83
2023-06-19T14:21:30.607Z,5.10
2023-06-19T14:23:58.198Z,3.15
2023-06-19T14:26:25.827Z,3.55
2023-06-19T14:28:58.049Z,3.70
2023-06-19T14:31:25.686Z,3.47
2023-06-19T14:33:53.228Z,4.43
2023-06-19T14:36:22.127Z,3.58
2023-06-19T14:38:49.781Z,4.30
2023-06-19T14:41:17.374Z,3.90
2023-06-19T14:43:44.967Z,4.40
2023-06-19T14:46:16.222Z,3.97
2023-06-19T14:48:50.688Z,4.63
2023-06-19T14:51:18.261Z,4.20
2023-06-19T14:53:47.670Z,4.37
2023-06-19T14:56:15.669Z,4.23
2023-06-19T14:58:43.712Z,4.70
2023-06-19T15:01:11.922Z,4.33
2023-06-19T15:03:39.583Z,5.23
2023-06-19T15:06:08.101Z,5.40
2023-06-19T15:08:36.702Z,6.97
2023-06-19T15:11:05.719Z,4.17
2023-06-19T15:13:33.492Z,5.10
2023-06-19T15:16:01.057Z,4.00
2023-06-19T15:18:28.992Z,3.87
2023-06-19T15:20:56.648Z,4.37
2023-06-19T15:23:24.409Z,4.90
2023-06-19T15:25:53.236Z,4.27
2023-06-19T15:28:22.304Z,4.20
2023-06-19T15:30:49.918Z,4.20
2023-06-19T15:33:18.787Z,3.70
2023-06-19T15:35:48.445Z,4.40
2023-06-19T15:38:16.340Z,4.07
2023-06-19T15:40:44.354Z,4.03
2023-06-19T15:43:12.004Z,4.17
2023-06-19T15:45:40.981Z,3.63
2023-06-19T15:48:08.591Z,4.77
2023-06-19T15:50:36.196Z,4.27
2023-06-19T15:53:03.775Z,4.50
2023-06-19T15:55:31.399Z,4.33
2023-06-19T15:57:58.930Z,5.97
2023-06-19T16:00:27.713Z,5.63
2023-06-19T16:02:56.933Z,3.70
2023-06-19T16:05:24.702Z,3.87
2023-06-19T16:07:52.273Z,3.90
2023-06-19T16:10:20.184Z,4.13
2023-06-19T16:12:50.227Z,4.27
2023-06-19T16:15:24.341Z,4.07
2023-06-19T16:17:54.879Z,4.73
2023-06-19T16:20:24.638Z,4.13
2023-06-19T16:22:52.624Z,4.50
2023-06-19T16:25:20.331Z,4.00
2023-06-19T16:27:47.866Z,4.00
2023-06-19T16:30:15.617Z,4.27
2023-06-19T16:32:43.403Z,4.43
2023-06-19T16:35:11.171Z,4.23
2023-06-19T16:37:40.248Z,13.17
2023-06-19T16:40:09.535Z,7.63
2023-06-19T16:42:37.210Z,6.03
2023-06-19T16:45:05.443Z,4.67
2023-06-19T16:47:33.097Z,4.57
2023-06-19T16:50:00.677Z,4.30
2023-06-19T16:52:28.503Z,4.43
2023-06-19T16:54:57.462Z,4.50
2023-06-19T16:57:27.133Z,4.90
2023-06-19T16:59:54.699Z,3.90
2023-06-19T17:02:23.115Z,4.50
2023-06-19T17:04:50.798Z,3.90
2023-06-19T17:07:18.614Z,4.10
2023-06-19T17:09:47.179Z,4.40
2023-06-19T17:12:16.572Z,4.27
2023-06-19T17:14:44.179Z,4.00
2023-06-19T17:17:11.840Z,4.53
2023-06-19T17:19:39.498Z,4.43
2023-06-19T17:22:07.067Z,4.73
2023-06-19T17:24:34.809Z,4.90
2023-06-19T17:27:02.384Z,4.80
2023-06-19T17:29:31.425Z,5.20
2023-06-19T17:31:58.959Z,5.00
2023-06-19T17:34:26.625Z,5.17
2023-06-19T17:36:55.077Z,5.00
2023-06-19T17:39:22.731Z,7.03
2023-06-19T17:41:52.991Z,9.60
2023-06-19T17:44:26.234Z,15.00
2023-06-19T17:46:55.480Z,8.10
2023-06-19T17:49:23.682Z,9.17
2023-06-19T17:51:51.508Z,8.40
2023-06-19T17:54:19.088Z,5.87
2023-06-19T17:56:46.699Z,6.17
2023-06-19T17:59:15.408Z,6.03
2023-06-19T18:01:43.082Z,4.80
2023-06-19T18:04:12.092Z,5.53
2023-06-19T18:06:39.695Z,4.93
2023-06-19T18:09:08.942Z,5.33
2023-06-19T18:11:36.584Z,5.17
2023-06-19T18:14:04.460Z,5.40
2023-06-19T18:16:32.002Z,4.87
2023-06-19T18:18:59.652Z,4.73
2023-06-19T18:21:28.652Z,4.97
2023-06-19T18:23:56.293Z,5.07
2023-06-19T18:26:23.935Z,5.70
2023-06-19T18:28:52.632Z,12.43
2023-06-19T18:31:20.309Z,6.63
2023-06-19T18:33:47.855Z,19.57
2023-06-19T18:36:15.427Z,11.97
2023-06-19T18:38:44.408Z,11.57
2023-06-19T18:41:12.142Z,8.73
2023-06-19T18:43:39.739Z,6.83
2023-06-19T18:46:07.431Z,6.57
2023-06-19T18:48:35.045Z,5.77
2023-06-19T18:51:02.655Z,6.10
2023-06-19T18:53:30.233Z,5.77
2023-06-19T18:55:59.227Z,6.10
2023-06-19T18:58:26.790Z,5.10
2023-06-19T19:00:54.380Z,5.57
2023-06-19T19:03:22.296Z,6.30
2023-06-19T19:05:50.401Z,6.23
2023-06-19T19:08:17.946Z,6.40
2023-06-19T19:10:45.544Z,6.53
2023-06-19T19:13:15.185Z,6.37
2023-06-19T19:15:42.855Z,6.97
2023-06-19T19:18:10.755Z,6.57
2023-06-19T19:20:38.307Z,6.70
2023-06-19T19:23:06.820Z,6.47
2023-06-19T19:25:34.435Z,5.93
2023-06-19T19:28:02.009Z,7.10
2023-06-19T19:30:31.135Z,6.23
2023-06-19T19:32:58.932Z,6.73
2023-06-19T19:35:26.543Z,6.10
2023-06-19T19:37:54.296Z,6.50
2023-06-19T19:40:22.547Z,6.90
2023-06-19T19:42:50.273Z,7.47
2023-06-19T19:45:17.935Z,9.37
2023-06-19T19:47:46.976Z,7.50
2023-06-19T19:50:14.516Z,7.17
2023-06-19T19:52:42.062Z,6.73
2023-06-19T19:55:12.122Z,6.60
2023-06-19T19:57:39.697Z,6.50
2023-06-19T20:00:08.842Z,6.50
2023-06-19T20:02:36.522Z,6.80
2023-06-19T20:05:06.474Z,7.10
2023-06-19T20:07:33.996Z,7.20
2023-06-19T20:10:02.366Z,7.70
2023-06-19T20:12:29.930Z,7.27
2023-06-19T20:14:57.533Z,7.60
2023-06-19T20:17:25.144Z,7.97
2023-06-19T20:19:52.981Z,7.60
2023-06-19T20:22:21.950Z,7.80
2023-06-19T20:24:49.520Z,7.70
2023-06-19T20:27:17.964Z,8.20
2023-06-19T20:29:45.557Z,7.47
2023-06-19T20:32:13.116Z,7.97
2023-06-19T20:34:40.793Z,8.10
2023-06-19T20:37:08.591Z,7.93
2023-06-19T20:39:37.484Z,8.47
2023-06-19T20:42:05.272Z,8.13
2023-06-19T20:44:35.282Z,8.50
2023-06-19T20:47:03.493Z,7.70
2023-06-19T20:49:31.252Z,8.80
2023-06-19T20:51:59.109Z,8.20
2023-06-19T20:54:26.685Z,8.27
2023-06-19T20:56:56.314Z,9.53
2023-06-19T20:59:23.979Z,9.13
2023-06-19T21:02:00.874Z,9.23
2023-06-19T21:04:28.594Z,8.90
2023-06-19T21:06:56.393Z,8.10
2023-06-19T21:09:24.625Z,8.27
2023-06-19T21:11:52.568Z,9.00
2023-06-19T21:14:21.529Z,8.67
2023-06-19T21:16:49.321Z,8.73
2023-06-19T21:19:16.862Z,8.27
2023-06-19T21:21:44.475Z,9.47
2023-06-19T21:24:12.115Z,8.60
2023-06-19T21:26:39.809Z,8.87
2023-06-19T21:29:07.462Z,9.37
2023-06-19T21:31:36.388Z,8.97
2023-06-19T21:34:03.996Z,9.47
2023-06-19T21:36:31.540Z,9.33
2023-06-19T21:38:59.096Z,9.17
2023-06-19T21:41:26.655Z,8.87
2023-06-19T21:43:54.200Z,8.73
2023-06-19T21:46:21.807Z,8.57
2023-06-19T21:48:50.721Z,10.17
2023-06-19T21:51:18.276Z,8.37
2023-06-19T21:53:46.087Z,8.77
2023-06-19T21:56:13.654Z,10.33
2023-06-19T21:58:41.460Z,9.20
2023-06-19T22:01:08.988Z,9.53
2023-06-19T22:03:36.777Z,9.67
2023-06-19T22:06:05.841Z,9.37
2023-06-19T22:08:42.242Z,9.30
2023-06-19T22:11:10.864Z,10.40
2023-06-19T22:13:38.749Z,10.10
2023-06-19T22:16:06.424Z,9.17
2023-06-19T22:18:34.024Z,10.00
2023-06-19T22:21:02.577Z,9.57
2023-06-19T22:23:31.588Z,8.83
2023-06-19T22:25:59.157Z,9.43
2023-06-19T22:28:26.723Z,10.70
2023-06-19T22:30:54.318Z,10.53
2023-06-19T22:33:21.908Z,10.90
2023-06-19T22:35:50.117Z,10.50
2023-06-19T22:38:17.657Z,10.90
2023-06-19T22:40:47.137Z,11.67
2023-06-19T22:43:14.840Z,11.23
2023-06-19T22:45:42.685Z,10.73
2023-06-19T22:48:10.262Z,10.77
2023-06-19T22:50:37.842Z,10.57
2023-06-19T22:53:05.746Z,11.17
2023-06-19T22:55:33.305Z,11.60
2023-06-19T22:58:02.411Z,11.07
2023-06-19T23:00:29.936Z,11.07
2023-06-19T23:02:57.579Z,10.23
2023-06-19T23:05:25.496Z,10.83
2023-06-19T23:07:53.629Z,10.33
2023-06-19T23:10:21.273Z,10.37
2023-06-19T23:12:48.807Z,10.73
2023-06-19T23:15:17.854Z,10.40
2023-06-19T23:17:46.113Z,11.53
2023-06-19T23:20:13.759Z,10.03
2023-06-19T23:22:41.448Z,10.53
2023-06-19T23:25:11.989Z,10.43
2023-06-19T23:27:39.728Z,10.33
2023-06-19T23:30:08.685Z,10.63
2023-06-19T23:32:37.615Z,11.40
2023-06-19T23:35:05.934Z,11.57
2023-06-19T23:37:33.514Z,10.47
2023-06-19T23:40:01.046Z,10.10
2023-06-19T23:42:28.658Z,10.37
2023-06-19T23:44:56.221Z,10.80
2023-06-19T23:47:23.773Z,10.53
2023-06-19T23:49:52.913Z,10.93
2023-06-19T23:52:29.683Z,10.37
2023-06-19T23:55:06.600Z,10.83
2023-06-19T23:57:34.126Z,11.33
